KRAC/RAC METAR and TAF weather

Enter ICAO airport designator
Station Type Date Time Source
KRAC METAR 2020/01/22 11:53 UTC NOAA

KRAC 221153Z AUTO 21010KT 10SM CLR M04/M08 A3020 RMK AO2 SLP236 T10391083 11039 21050 56019


Station Type Date Time Source
KRAC Decoded METAR 2020/01/22 11:53 UTC NOAA

BATTEN INTERNATIONAL AIRPORT, WI, United States (KRAC) 42-46N 87-49W 203M
Jan 22, 2020 - 06:53 AM EST / 2020.01.22 1153 UTC
Wind: from the SSW (210 degrees) at 12 MPH (10 KT):0
Visibility: 10 mile(s):0
Sky conditions: clear
Temperature: 25.0 F (-3.9 C)
Windchill: 14 F (-10 C):1
Dew Point: 17.1 F (-8.3 C)
Relative Humidity: 71%
Pressure (altimeter): 30.2 in. Hg (1022 hPa)
Pressure tendency: 0.06 inches (1.9 hPa) lower than three hours ago
ob: KRAC 221153Z AUTO 21010KT 10SM CLR M04/M08 A3020 RMK AO2 SLP236 T10391083 11039 21050 56019
cycle: 12

Station Type Date Time Source
KRAC TAF UTC NOAA

Error!

Example: see airport list